Aeroporto :







RITROVATECI SU...

 
LOGIN :

Iscrizione | Disclaimer

   EN    FR    IT 

 









Sommario :    VFR   VFR Marginale   IFR   IFR Intensivo   IFR Molto Intensivo
Visibilità : 
Base nubi : 
>= 8 km
>= 3000ft
5 / 8 km
1000 / 3000 ft
1500m / 5 km
500 / 1000 ft
800 / 1500m
200 / 500 ft
< 800m
< 200 ft
Simboli :   Temporali  Nebbia  Neve Forte  Precipitazioni Forti  Vento > 20 kt







- Altitudine del aeroporto : 76 ft
- Codice IATA : EGS


BIEG - Egilsstaðir

ULTIMO METAR :
  • 221400Z 36010KT 9999 BKN017 BKN043 04/00 Q1005 R04/CLRD//

METARs OBSOLETI :
  • 221248Z 36007KT 9999 BKN017 OVC040 04/00 Q1005 R04/190095
  • 221200Z 02011KT 9999 OVC022 03/00 Q1005 R04/290195

TAF TAF BIEG
Valido dal 22 a 15 ore il 23 a 15 ore UTC


221341Z 2215/2315 01010KT 9999 -RASN BKN020 OVC030 TX06/2215Z TN00/2306Z
BECMG 2302/2305 3000 SNRA BKN004 OVC010
BECMG 2308/2310 7000 RA BKN013 OVC018
Nessun NOTAM noto per questo aeroporto.



MetMap, La meteo Aeronautica in un colpo d'occhio ! - Copyright ORBIFLY Dicembre 2007 - Disclaimer

ORBIFLY MET'MAP TEAM :

Programmazione e sviluppo : Alexandra Zaïnal
Concezione e sviluppo : Baudouin d'Aumeries
Co-Programmazione e sviluppo : Marc-Olivier Méhu
Supporto tecnico e logistico : Manuel Goepfert
Aiuto per la traduzione : Arnaldo La Scala

Contatto : metmap@orbifly.com




FONTI E CREDITI :

   NOAA